createdAt,value
2018-11-26T00:00:45.681Z,67.82
2018-11-26T00:03:13.160Z,66.50
2018-11-26T00:05:40.758Z,67.97
2018-11-26T00:08:09.628Z,67.80
2018-11-26T00:10:48.613Z,66.56
2018-11-26T00:13:16.105Z,67.27
2018-11-26T00:15:44.091Z,69.29
2018-11-26T00:18:11.452Z,70.52
2018-11-26T00:20:41.236Z,68.58
2018-11-26T00:23:08.866Z,69.72
2018-11-26T00:25:36.259Z,69.43
2018-11-26T00:28:03.793Z,67.88
2018-11-26T00:30:31.832Z,66.41
2018-11-26T00:32:59.167Z,64.50
2018-11-26T00:35:26.552Z,65.59
2018-11-26T00:37:53.880Z,66.64
2018-11-26T00:40:21.253Z,64.64
2018-11-26T00:42:48.711Z,64.81
2018-11-26T00:45:16.745Z,65.81
2018-11-26T00:47:44.125Z,65.12
2018-11-26T00:50:11.454Z,65.11
2018-11-26T00:52:39.914Z,66.45
2018-11-26T00:55:09.217Z,66.53
2018-11-26T00:57:36.675Z,67.53
2018-11-26T01:00:06.349Z,67.27
2018-11-26T01:02:34.895Z,66.95
2018-11-26T01:05:02.211Z,67.71
2018-11-26T01:07:29.656Z,64.68
2018-11-26T01:09:57.030Z,65.17
2018-11-26T01:12:24.339Z,64.60
2018-11-26T01:14:51.702Z,66.36
2018-11-26T01:17:19.141Z,66.25
2018-11-26T01:19:46.475Z,68.05
2018-11-26T01:22:13.893Z,67.36
2018-11-26T01:24:41.324Z,65.43
2018-11-26T01:27:08.672Z,65.25
2018-11-26T01:29:36.060Z,65.39
2018-11-26T01:32:03.413Z,65.44
2018-11-26T01:34:30.781Z,65.78
2018-11-26T01:36:58.221Z,64.55
2018-11-26T01:39:25.567Z,65.67
2018-11-26T01:41:52.886Z,65.68
2018-11-26T01:44:20.224Z,66.67
2018-11-26T01:46:47.569Z,66.40
2018-11-26T01:49:14.915Z,66.96
2018-11-26T01:51:42.202Z,66.65
2018-11-26T01:54:09.703Z,67.45
2018-11-26T01:56:37.048Z,66.57
2018-11-26T01:59:04.454Z,68.46
2018-11-26T02:01:31.796Z,69.18
2018-11-26T02:03:59.099Z,69.66
2018-11-26T02:06:26.446Z,69.15
2018-11-26T02:08:53.752Z,67.13
2018-11-26T02:11:21.204Z,66.47
2018-11-26T02:13:48.542Z,66.70
2018-11-26T02:16:15.986Z,66.12
2018-11-26T02:18:43.332Z,66.81
2018-11-26T02:21:10.701Z,66.05
2018-11-26T02:23:38.654Z,65.66
2018-11-26T02:26:06.205Z,65.74
2018-11-26T02:28:34.135Z,64.78
2018-11-26T02:31:01.529Z,65.39
2018-11-26T02:33:28.853Z,64.28
2018-11-26T02:35:56.187Z,62.58
2018-11-26T02:38:23.545Z,63.20
2018-11-26T02:40:50.884Z,65.14
2018-11-26T02:43:18.262Z,65.55
2018-11-26T02:45:45.664Z,64.80
2018-11-26T02:48:13.766Z,64.01
2018-11-26T02:50:41.579Z,63.79
2018-11-26T02:53:08.953Z,62.32
2018-11-26T02:55:36.282Z,64.75
2018-11-26T02:58:03.618Z,65.43
2018-11-26T03:00:30.962Z,64.28
2018-11-26T03:02:58.394Z,63.57
2018-11-26T03:05:27.348Z,65.34
2018-11-26T03:07:54.794Z,65.68
2018-11-26T03:10:22.611Z,63.85
2018-11-26T03:12:49.987Z,63.65
2018-11-26T03:15:17.374Z,64.75
2018-11-26T03:17:45.879Z,65.63
2018-11-26T03:20:14.205Z,64.64
2018-11-26T03:22:41.590Z,65.00
2018-11-26T03:25:10.125Z,65.78
2018-11-26T03:27:37.540Z,66.08
2018-11-26T03:30:13.232Z,65.28
2018-11-26T03:32:40.609Z,66.60
2018-11-26T03:35:09.065Z,67.06
2018-11-26T03:37:36.378Z,65.67
2018-11-26T03:40:07.825Z,65.34
2018-11-26T03:42:35.272Z,66.14
2018-11-26T03:45:02.639Z,65.07
2018-11-26T03:47:30.007Z,64.21
2018-11-26T03:49:57.501Z,63.28
2018-11-26T03:52:24.832Z,65.33
2018-11-26T03:54:52.197Z,64.14
2018-11-26T03:57:19.711Z,63.74
2018-11-26T03:59:47.183Z,66.33
2018-11-26T04:02:14.652Z,65.47
2018-11-26T04:04:41.994Z,65.06
2018-11-26T04:07:09.341Z,63.88
2018-11-26T04:09:36.676Z,64.62
2018-11-26T04:12:04.235Z,65.47
2018-11-26T04:14:31.590Z,65.26
2018-11-26T04:17:02.303Z,65.68
2018-11-26T04:19:29.735Z,63.92
2018-11-26T04:21:57.054Z,64.60
2018-11-26T04:24:24.527Z,65.24
2018-11-26T04:26:51.987Z,66.81
2018-11-26T04:29:19.306Z,66.98
2018-11-26T04:31:46.697Z,64.08
2018-11-26T04:34:14.055Z,65.11
2018-11-26T04:36:41.393Z,65.67
2018-11-26T04:39:08.717Z,66.97
2018-11-26T04:41:36.128Z,67.39
2018-11-26T04:44:03.456Z,67.58
2018-11-26T04:46:30.904Z,66.48
2018-11-26T04:48:58.254Z,66.78
2018-11-26T04:51:25.700Z,64.75
2018-11-26T04:53:53.096Z,64.67
2018-11-26T04:56:20.512Z,66.14
2018-11-26T04:58:47.870Z,64.32
2018-11-26T05:01:15.303Z,65.67
2018-11-26T05:03:42.626Z,67.24
2018-11-26T05:06:09.956Z,65.54
2018-11-26T05:08:37.803Z,63.63
2018-11-26T05:11:05.463Z,62.13
2018-11-26T05:13:32.806Z,63.07
2018-11-26T05:16:00.184Z,62.72
2018-11-26T05:18:27.587Z,63.29
2018-11-26T05:20:54.902Z,62.02
2018-11-26T05:23:22.264Z,62.59
2018-11-26T05:25:49.595Z,62.87
2018-11-26T05:28:16.887Z,62.06
2018-11-26T05:30:44.230Z,60.90
2018-11-26T05:33:11.660Z,60.71
2018-11-26T05:35:39.085Z,61.06
2018-11-26T05:38:06.413Z,59.31
2018-11-26T05:40:33.903Z,59.64
2018-11-26T05:43:01.297Z,59.96
2018-11-26T05:45:28.736Z,59.81
2018-11-26T05:47:56.073Z,61.66
2018-11-26T05:50:23.389Z,60.33
2018-11-26T05:52:50.871Z,65.97
2018-11-26T05:55:18.305Z,65.33
2018-11-26T05:57:46.303Z,67.34
2018-11-26T06:00:22.099Z,65.34
2018-11-26T06:02:49.444Z,65.40
2018-11-26T06:05:20.602Z,66.13
2018-11-26T06:07:48.020Z,64.03
2018-11-26T06:10:15.384Z,62.91
2018-11-26T06:12:42.693Z,63.61
2018-11-26T06:15:12.364Z,64.13
2018-11-26T06:17:39.998Z,64.92
2018-11-26T06:20:09.258Z,65.68
2018-11-26T06:22:36.613Z,66.08
2018-11-26T06:25:05.623Z,67.05
2018-11-26T06:27:32.950Z,66.71
2018-11-26T06:30:00.292Z,63.55
2018-11-26T06:32:27.702Z,62.88
2018-11-26T06:34:55.012Z,61.94
2018-11-26T06:37:22.353Z,62.75
2018-11-26T06:39:49.702Z,62.79
2018-11-26T06:42:17.014Z,63.17
2018-11-26T06:44:44.354Z,64.56
2018-11-26T06:47:11.787Z,66.37
2018-11-26T06:49:39.350Z,63.53
2018-11-26T06:52:06.708Z,65.03
2018-11-26T06:54:34.213Z,64.06
2018-11-26T06:57:01.639Z,63.14
2018-11-26T06:59:29.105Z,64.63
2018-11-26T07:01:56.451Z,64.60
2018-11-26T07:04:23.793Z,64.19
2018-11-26T07:06:51.189Z,63.81
2018-11-26T07:09:18.490Z,65.81
2018-11-26T07:11:45.951Z,64.76
2018-11-26T07:14:13.273Z,65.98
2018-11-26T07:16:41.383Z,66.64
2018-11-26T07:19:08.790Z,67.56
2018-11-26T07:21:36.263Z,67.32
2018-11-26T07:24:03.591Z,65.12
2018-11-26T07:26:30.927Z,66.25
2018-11-26T07:28:58.355Z,66.55
2018-11-26T07:31:25.790Z,66.20
2018-11-26T07:33:53.225Z,64.80
2018-11-26T07:36:20.630Z,63.47
2018-11-26T07:38:48.123Z,63.20
2018-11-26T07:41:15.457Z,64.15
2018-11-26T07:43:42.873Z,64.42
2018-11-26T07:46:10.216Z,63.76
2018-11-26T07:48:37.638Z,62.90
2018-11-26T07:51:05.536Z,63.17
2018-11-26T07:53:32.937Z,61.98
2018-11-26T07:56:00.248Z,64.47
2018-11-26T07:58:27.598Z,65.08
2018-11-26T08:00:55.017Z,64.43
2018-11-26T08:03:22.529Z,63.66
2018-11-26T08:05:50.671Z,62.70
2018-11-26T08:08:18.210Z,64.19
2018-11-26T08:10:46.852Z,64.25
2018-11-26T08:13:14.366Z,63.98
2018-11-26T08:15:41.793Z,62.73
2018-11-26T08:18:09.117Z,63.92
2018-11-26T08:20:36.547Z,61.43
2018-11-26T08:23:04.268Z,61.92
2018-11-26T08:25:31.674Z,62.70
2018-11-26T08:27:59.294Z,62.85
2018-11-26T08:30:27.321Z,61.18
2018-11-26T08:32:55.971Z,61.07
2018-11-26T08:35:23.334Z,62.08
2018-11-26T08:38:01.384Z,62.53
2018-11-26T08:40:30.429Z,60.72
2018-11-26T08:43:15.349Z,62.85
2018-11-26T08:45:51.852Z,61.83
2018-11-26T08:48:30.834Z,62.42
2018-11-26T08:50:59.367Z,61.15
2018-11-26T08:53:26.875Z,61.57
2018-11-26T08:55:54.297Z,61.24
2018-11-26T08:58:21.726Z,60.79
2018-11-26T09:00:55.294Z,61.66
2018-11-26T09:03:23.756Z,61.07
2018-11-26T09:05:59.750Z,59.88
2018-11-26T09:08:27.854Z,59.92
2018-11-26T09:10:55.302Z,58.83
2018-11-26T09:13:22.647Z,59.45
2018-11-26T09:15:50.016Z,59.76
2018-11-26T09:18:17.414Z,59.42
2018-11-26T09:20:44.796Z,58.62
2018-11-26T09:23:12.173Z,59.16
2018-11-26T09:25:39.487Z,60.31
2018-11-26T09:28:06.840Z,59.45
2018-11-26T09:30:34.198Z,57.91
2018-11-26T09:33:01.660Z,58.44
2018-11-26T09:35:29.006Z,58.60
2018-11-26T09:37:56.395Z,58.99
2018-11-26T09:40:23.772Z,60.51
2018-11-26T09:42:51.118Z,60.52
2018-11-26T09:45:18.550Z,60.88
2018-11-26T09:47:46.214Z,62.97
2018-11-26T09:50:18.027Z,62.36
2018-11-26T09:52:45.540Z,62.61
2018-11-26T09:55:14.317Z,62.42
2018-11-26T09:57:41.680Z,63.00
2018-11-26T10:00:11.655Z,60.38
2018-11-26T10:02:39.705Z,61.58
2018-11-26T10:05:09.431Z,63.03
2018-11-26T10:07:36.900Z,61.73
2018-11-26T10:10:06.032Z,62.66
2018-11-26T10:12:33.941Z,61.38
2018-11-26T10:15:01.319Z,63.39
2018-11-26T10:17:28.631Z,63.13
2018-11-26T10:19:56.005Z,62.71
2018-11-26T10:22:23.441Z,61.63
2018-11-26T10:24:50.843Z,61.33
2018-11-26T10:27:18.257Z,60.78
2018-11-26T10:29:45.751Z,61.22
2018-11-26T10:32:13.138Z,60.51
2018-11-26T10:34:40.791Z,61.39
2018-11-26T10:37:08.131Z,61.28
2018-11-26T10:39:35.480Z,61.03
2018-11-26T10:42:02.927Z,60.55
2018-11-26T10:44:30.269Z,60.51
2018-11-26T10:46:57.646Z,60.90
2018-11-26T10:49:25.096Z,60.73
2018-11-26T10:51:52.556Z,61.35
2018-11-26T10:54:20.388Z,61.47
2018-11-26T10:56:47.769Z,60.12
2018-11-26T10:59:15.322Z,61.93
2018-11-26T11:01:44.390Z,61.25
2018-11-26T11:04:11.852Z,62.41
2018-11-26T11:06:39.290Z,62.04
2018-11-26T11:09:07.926Z,61.72
2018-11-26T11:11:35.280Z,62.23
2018-11-26T11:14:02.865Z,64.26
2018-11-26T11:16:30.236Z,63.48
2018-11-26T11:18:57.575Z,61.20
2018-11-26T11:21:25.146Z,62.78
2018-11-26T11:23:52.627Z,63.31
2018-11-26T11:26:20.034Z,62.42
2018-11-26T11:28:47.368Z,61.74
2018-11-26T11:31:15.274Z,61.43
2018-11-26T11:33:42.746Z,61.74
2018-11-26T11:36:10.135Z,62.80
2018-11-26T11:38:37.506Z,62.05
2018-11-26T11:41:05.889Z,61.80
2018-11-26T11:43:33.408Z,62.28
2018-11-26T11:46:00.844Z,61.80
2018-11-26T11:48:28.232Z,61.10
2018-11-26T11:50:55.549Z,60.93
2018-11-26T11:53:23.026Z,61.06
2018-11-26T11:55:50.832Z,60.42
2018-11-26T11:58:18.192Z,60.94
2018-11-26T12:00:47.091Z,62.45
2018-11-26T12:03:17.889Z,61.82
2018-11-26T12:05:45.315Z,60.53
2018-11-26T12:08:12.778Z,60.85
2018-11-26T12:10:40.222Z,61.04
2018-11-26T12:13:09.197Z,60.77
2018-11-26T12:15:38.292Z,61.55
2018-11-26T12:18:06.782Z,61.55
2018-11-26T12:20:34.533Z,61.67
2018-11-26T12:23:01.988Z,60.42
2018-11-26T12:25:29.525Z,60.60
2018-11-26T12:27:56.955Z,62.26
2018-11-26T12:30:25.652Z,62.94
2018-11-26T12:32:53.105Z,62.18
2018-11-26T12:35:20.445Z,60.77
2018-11-26T12:37:47.899Z,62.86
2018-11-26T12:42:55.239Z,61.52
2018-11-26T12:45:26.911Z,61.41
2018-11-26T12:47:54.324Z,63.61
2018-11-26T12:50:21.693Z,64.00
2018-11-26T12:52:49.963Z,63.89
2018-11-26T12:55:18.379Z,64.28
2018-11-26T12:57:46.899Z,62.85
2018-11-26T13:00:25.096Z,62.37
2018-11-26T13:03:02.243Z,62.53
2018-11-26T13:05:29.604Z,63.91
2018-11-26T13:07:56.947Z,62.24
2018-11-26T13:10:24.320Z,62.53
2018-11-26T13:12:52.298Z,63.18
2018-11-26T13:15:20.968Z,64.74
2018-11-26T13:17:48.328Z,64.78
2018-11-26T13:20:19.128Z,63.40
2018-11-26T13:22:46.588Z,64.74
2018-11-26T13:25:17.218Z,63.48
2018-11-26T13:27:48.171Z,63.94
2018-11-26T13:30:18.842Z,64.94
2018-11-26T13:32:48.394Z,62.93
2018-11-26T13:35:16.837Z,62.83
2018-11-26T13:37:44.293Z,63.59
2018-11-26T13:40:13.056Z,63.93
2018-11-26T13:42:40.799Z,62.94
2018-11-26T13:45:17.675Z,62.99
2018-11-26T13:47:45.458Z,63.91
2018-11-26T13:50:17.737Z,62.49
2018-11-26T13:52:45.099Z,62.37
2018-11-26T13:55:12.718Z,62.99
2018-11-26T13:57:40.287Z,63.33
2018-11-26T14:00:14.849Z,61.36
2018-11-26T14:02:42.308Z,60.88
2018-11-26T14:05:11.165Z,60.24
2018-11-26T14:07:38.641Z,61.04
2018-11-26T14:10:10.439Z,62.16
2018-11-26T14:12:38.094Z,61.57
2018-11-26T14:15:08.207Z,63.34
2018-11-26T14:17:35.674Z,62.92
2018-11-26T14:20:03.356Z,64.30
2018-11-26T14:22:30.839Z,62.71
2018-11-26T14:24:58.216Z,62.27
2018-11-26T14:27:25.664Z,61.31
2018-11-26T14:29:53.509Z,62.12
2018-11-26T14:32:21.266Z,62.19
2018-11-26T14:34:49.105Z,62.75
2018-11-26T14:37:16.437Z,62.83
2018-11-26T14:39:43.781Z,61.87
2018-11-26T14:42:11.161Z,60.80
2018-11-26T14:44:38.530Z,59.95
2018-11-26T14:47:06.482Z,60.93
2018-11-26T14:49:33.832Z,62.45
2018-11-26T14:52:01.269Z,64.07
2018-11-26T14:54:28.619Z,63.26
2018-11-26T14:56:56.055Z,62.02
2018-11-26T14:59:23.416Z,61.23
2018-11-26T15:01:50.877Z,61.93
2018-11-26T15:04:18.201Z,62.27
2018-11-26T15:06:45.576Z,62.30
2018-11-26T15:09:12.889Z,61.36
2018-11-26T15:11:40.344Z,62.55
2018-11-26T15:14:07.765Z,60.86
2018-11-26T15:16:35.162Z,60.95
2018-11-26T15:19:02.550Z,63.23
2018-11-26T15:21:30.606Z,64.08
2018-11-26T15:23:58.048Z,64.11
2018-11-26T15:26:28.602Z,63.01
2018-11-26T15:28:56.845Z,61.20
2018-11-26T15:31:24.172Z,63.45
2018-11-26T15:33:51.515Z,62.11
2018-11-26T15:36:18.880Z,62.22
2018-11-26T15:38:46.242Z,62.11
2018-11-26T15:41:13.618Z,62.06
2018-11-26T15:43:41.036Z,61.29
2018-11-26T15:46:09.117Z,62.33
2018-11-26T15:48:36.451Z,63.43
2018-11-26T15:51:03.792Z,63.23
2018-11-26T15:53:31.810Z,62.49
2018-11-26T15:55:59.216Z,62.23
2018-11-26T15:58:26.649Z,61.26
2018-11-26T16:00:54.158Z,62.32
2018-11-26T16:03:21.625Z,61.76
2018-11-26T16:05:49.135Z,64.05
2018-11-26T16:08:16.501Z,62.56
2018-11-26T16:10:43.819Z,64.10
2018-11-26T16:13:13.286Z,63.22
2018-11-26T16:15:42.155Z,61.80
2018-11-26T16:18:13.518Z,61.40
2018-11-26T16:20:39.813Z,59.72
2018-11-26T16:23:08.656Z,62.94
2018-11-26T16:25:37.245Z,61.02
2018-11-26T16:28:05.165Z,61.79
2018-11-26T16:30:32.679Z,60.41
2018-11-26T16:33:00.106Z,60.52
2018-11-26T16:35:29.139Z,62.19
2018-11-26T16:37:56.731Z,62.47
2018-11-26T16:40:24.251Z,62.10
2018-11-26T16:42:51.835Z,60.88
2018-11-26T16:45:21.445Z,60.44
2018-11-26T16:47:51.126Z,59.09
2018-11-26T16:50:19.634Z,60.96
2018-11-26T16:52:47.088Z,60.38
2018-11-26T16:55:15.217Z,59.38
2018-11-26T16:57:42.915Z,59.30
2018-11-26T17:00:17.365Z,60.47
2018-11-26T17:02:45.752Z,58.95
2018-11-26T17:05:17.993Z,60.93
2018-11-26T17:07:45.374Z,60.70
2018-11-26T17:10:12.728Z,60.52
2018-11-26T17:12:40.546Z,60.20
2018-11-26T17:15:12.555Z,59.69
2018-11-26T17:17:40.040Z,61.48
2018-11-26T17:20:09.360Z,60.45
2018-11-26T17:22:36.719Z,60.70
2018-11-26T17:25:05.323Z,61.62
2018-11-26T17:27:32.817Z,60.49
2018-11-26T17:30:00.322Z,61.56
2018-11-26T17:32:27.742Z,58.73
2018-11-26T17:34:55.307Z,57.12
2018-11-26T17:37:22.807Z,56.65
2018-11-26T17:39:50.173Z,56.93
2018-11-26T17:42:17.530Z,56.88
2018-11-26T17:44:45.062Z,57.68
2018-11-26T17:47:12.999Z,56.83
2018-11-26T17:49:40.389Z,57.79
2018-11-26T17:52:07.928Z,58.27
2018-11-26T17:54:35.815Z,59.23
2018-11-26T17:57:03.143Z,59.64
2018-11-26T17:59:30.957Z,58.72
2018-11-26T18:01:59.082Z,57.68
2018-11-26T18:04:26.496Z,57.01
2018-11-26T18:06:53.847Z,57.42
2018-11-26T18:09:22.869Z,56.69
2018-11-26T18:11:48.880Z,56.61
2018-11-26T18:14:16.240Z,59.35
2018-11-26T18:16:44.639Z,58.10
2018-11-26T18:19:12.064Z,57.62
2018-11-26T18:21:39.478Z,57.11
2018-11-26T18:24:07.148Z,56.36
2018-11-26T18:26:35.238Z,58.61
2018-11-26T18:29:02.938Z,57.80
2018-11-26T18:31:30.800Z,58.13
2018-11-26T18:33:58.521Z,59.55
2018-11-26T18:36:26.028Z,59.23
2018-11-26T18:38:53.352Z,58.36
2018-11-26T18:41:20.809Z,59.46
2018-11-26T18:43:48.139Z,60.07
2018-11-26T18:46:15.463Z,59.21
2018-11-26T18:48:42.936Z,58.52
2018-11-26T18:51:10.321Z,57.35
2018-11-26T18:53:37.698Z,58.96
2018-11-26T18:56:06.065Z,59.78
2018-11-26T18:58:34.594Z,59.54
2018-11-26T19:01:01.996Z,59.16
2018-11-26T19:03:29.494Z,59.59
2018-11-26T19:05:56.940Z,60.05
2018-11-26T19:08:24.525Z,61.18
2018-11-26T19:10:55.166Z,61.72
2018-11-26T19:13:24.731Z,62.05
2018-11-26T19:15:56.234Z,60.77
2018-11-26T19:18:25.807Z,61.06
2018-11-26T19:20:53.704Z,60.58
2018-11-26T19:23:21.683Z,61.40
2018-11-26T19:25:50.500Z,61.18
2018-11-26T19:28:20.471Z,60.14
2018-11-26T19:30:45.537Z,60.10
2018-11-26T19:33:12.885Z,60.98
2018-11-26T19:35:40.322Z,60.96
2018-11-26T19:38:08.046Z,61.41
2018-11-26T19:40:36.913Z,61.33
2018-11-26T19:43:04.949Z,60.66
2018-11-26T19:45:32.515Z,61.94
2018-11-26T19:48:00.013Z,60.06
2018-11-26T19:50:27.351Z,61.55
2018-11-26T19:52:54.916Z,61.63
2018-11-26T19:55:23.641Z,62.21
2018-11-26T19:57:51.650Z,60.59
2018-11-26T20:00:27.973Z,61.10
2018-11-26T20:03:13.957Z,60.52
2018-11-26T20:05:48.321Z,61.39
2018-11-26T20:08:15.704Z,60.20
2018-11-26T20:10:43.064Z,61.56
2018-11-26T20:13:10.509Z,60.99
2018-11-26T20:15:37.970Z,59.82
2018-11-26T20:18:05.962Z,58.39
2018-11-26T20:20:33.300Z,58.72
2018-11-26T20:23:00.778Z,59.83
2018-11-26T20:25:28.260Z,63.09
2018-11-26T20:27:56.112Z,61.92
2018-11-26T20:30:23.147Z,61.80
2018-11-26T20:32:50.618Z,60.63
2018-11-26T20:35:17.998Z,59.66
2018-11-26T20:37:45.493Z,60.14
2018-11-26T20:40:14.077Z,60.02
2018-11-26T20:42:48.539Z,60.31
2018-11-26T20:45:16.368Z,60.17
2018-11-26T20:47:45.253Z,58.11
2018-11-26T20:50:27.901Z,58.02
2018-11-26T20:52:56.565Z,58.57
2018-11-26T20:55:25.070Z,58.08
2018-11-26T20:57:54.129Z,60.57
2018-11-26T21:00:22.953Z,58.66
2018-11-26T21:02:52.867Z,58.58
2018-11-26T21:05:20.632Z,58.53
2018-11-26T21:07:48.377Z,57.17
2018-11-26T21:10:16.410Z,58.95
2018-11-26T21:12:44.941Z,58.66
2018-11-26T21:15:15.183Z,59.50
2018-11-26T21:17:44.275Z,59.98
2018-11-26T21:20:19.579Z,59.45
2018-11-26T21:22:48.112Z,59.88
2018-11-26T21:25:16.389Z,59.21
2018-11-26T21:27:44.771Z,59.59
2018-11-26T21:30:14.706Z,59.03
2018-11-26T21:32:43.156Z,57.18
2018-11-26T21:35:12.610Z,56.57
2018-11-26T21:37:41.335Z,57.51
2018-11-26T21:40:11.063Z,57.24
2018-11-26T21:42:38.872Z,57.82
2018-11-26T21:45:16.884Z,58.15
2018-11-26T21:47:44.620Z,58.30
2018-11-26T21:50:13.514Z,58.75
2018-11-26T21:52:41.694Z,59.68
2018-11-26T21:55:13.997Z,59.21
2018-11-26T21:57:41.852Z,58.24
2018-11-26T22:00:20.687Z,58.48
2018-11-26T22:02:49.038Z,58.48
2018-11-26T22:05:17.256Z,61.12
2018-11-26T22:07:45.313Z,60.79
2018-11-26T22:10:15.610Z,60.04
2018-11-26T22:12:45.426Z,59.07
2018-11-26T22:15:13.713Z,60.18
2018-11-26T22:17:41.787Z,59.99
2018-11-26T22:20:13.600Z,58.43
2018-11-26T22:22:41.357Z,59.18
2018-11-26T22:25:10.337Z,59.23
2018-11-26T22:27:38.598Z,60.12
2018-11-26T22:30:38.487Z,59.32
2018-11-26T22:33:06.369Z,59.53
2018-11-26T22:35:34.185Z,59.49
2018-11-26T22:38:01.915Z,59.38
2018-11-26T22:40:29.422Z,59.69
2018-11-26T22:42:56.750Z,57.96
2018-11-26T22:45:28.059Z,59.12
2018-11-26T22:48:01.960Z,58.13
2018-11-26T22:50:29.371Z,58.82
2018-11-26T22:52:56.765Z,58.49
2018-11-26T22:55:24.119Z,58.29
2018-11-26T22:57:51.502Z,57.03
2018-11-26T23:00:26.622Z,55.55
2018-11-26T23:02:55.411Z,56.21
2018-11-26T23:05:22.775Z,56.30
2018-11-26T23:07:50.177Z,55.22
2018-11-26T23:10:17.526Z,57.31
2018-11-26T23:12:44.935Z,56.03
2018-11-26T23:15:13.587Z,56.84
2018-11-26T23:17:41.361Z,57.58
2018-11-26T23:20:11.173Z,57.33
2018-11-26T23:22:39.549Z,57.58
2018-11-26T23:25:09.490Z,56.66
2018-11-26T23:27:36.835Z,56.84
2018-11-26T23:30:08.300Z,57.52
2018-11-26T23:32:35.635Z,57.53
2018-11-26T23:35:02.962Z,57.82
2018-11-26T23:37:30.425Z,57.31
2018-11-26T23:39:57.796Z,57.40
2018-11-26T23:42:25.202Z,57.26
2018-11-26T23:44:52.594Z,57.85
2018-11-26T23:47:19.948Z,56.02
2018-11-26T23:49:47.926Z,55.91
2018-11-26T23:52:15.366Z,56.34
2018-11-26T23:54:42.730Z,54.71
2018-11-26T23:57:10.228Z,56.14
2018-11-26T23:59:37.685Z,56.74
